sensor_id;sensor_type;location;lat;lon;timestamp;P1;durP1;ratioP1;P2;durP2;ratioP2
16385;SDS011;8302;51.154;4.456;2024-02-23T00:01:44;0.77;;;0.38;;
16385;SDS011;8302;51.154;4.456;2024-02-23T00:04:12;0.22;;;0.22;;
16385;SDS011;8302;51.154;4.456;2024-02-23T00:06:40;1.27;;;0.43;;
16385;SDS011;8302;51.154;4.456;2024-02-23T00:09:08;1.33;;;0.80;;
16385;SDS011;8302;51.154;4.456;2024-02-23T00:11:38;1.40;;;0.30;;
16385;SDS011;8302;51.154;4.456;2024-02-23T00:14:08;0.40;;;0.30;;
16385;SDS011;8302;51.154;4.456;2024-02-23T00:16:38;0.60;;;0.40;;
16385;SDS011;8302;51.154;4.456;2024-02-23T00:19:07;0.45;;;0.30;;
16385;SDS011;8302;51.154;4.456;2024-02-23T00:21:35;0.52;;;0.30;;
16385;SDS011;8302;51.154;4.456;2024-02-23T00:24:03;0.20;;;0.20;;
16385;SDS011;8302;51.154;4.456;2024-02-23T00:26:31;0.90;;;0.40;;
16385;SDS011;8302;51.154;4.456;2024-02-23T00:28:59;0.38;;;0.38;;
16385;SDS011;8302;51.154;4.456;2024-02-23T00:31:27;1.08;;;0.38;;
16385;SDS011;8302;51.154;4.456;2024-02-23T00:33:56;0.43;;;0.40;;
16385;SDS011;8302;51.154;4.456;2024-02-23T00:36:24;1.77;;;0.40;;
16385;SDS011;8302;51.154;4.456;2024-02-23T00:38:52;0.40;;;0.30;;
16385;SDS011;8302;51.154;4.456;2024-02-23T00:41:20;0.30;;;0.30;;
16385;SDS011;8302;51.154;4.456;2024-02-23T00:43:47;0.52;;;0.43;;
16385;SDS011;8302;51.154;4.456;2024-02-23T00:46:15;0.90;;;0.43;;
16385;SDS011;8302;51.154;4.456;2024-02-23T00:48:43;1.65;;;0.60;;
16385;SDS011;8302;51.154;4.456;2024-02-23T00:51:12;0.60;;;0.60;;
16385;SDS011;8302;51.154;4.456;2024-02-23T00:53:40;0.93;;;0.40;;
16385;SDS011;8302;51.154;4.456;2024-02-23T00:56:07;1.17;;;0.50;;
16385;SDS011;8302;51.154;4.456;2024-02-23T00:58:35;0.65;;;0.50;;
16385;SDS011;8302;51.154;4.456;2024-02-23T01:01:03;1.48;;;0.40;;
16385;SDS011;8302;51.154;4.456;2024-02-23T01:03:31;0.35;;;0.30;;
16385;SDS011;8302;51.154;4.456;2024-02-23T01:05:59;0.32;;;0.32;;
16385;SDS011;8302;51.154;4.456;2024-02-23T01:08:28;0.80;;;0.60;;
16385;SDS011;8302;51.154;4.456;2024-02-23T01:10:56;1.00;;;0.50;;
16385;SDS011;8302;51.154;4.456;2024-02-23T01:13:24;1.02;;;0.50;;
16385;SDS011;8302;51.154;4.456;2024-02-23T01:15:51;1.20;;;0.55;;
16385;SDS011;8302;51.154;4.456;2024-02-23T01:18:20;0.98;;;0.50;;
16385;SDS011;8302;51.154;4.456;2024-02-23T01:20:48;0.82;;;0.40;;
16385;SDS011;8302;51.154;4.456;2024-02-23T01:23:15;1.98;;;0.55;;
16385;SDS011;8302;51.154;4.456;2024-02-23T01:25:45;1.75;;;0.60;;
16385;SDS011;8302;51.154;4.456;2024-02-23T01:28:12;1.05;;;0.60;;
16385;SDS011;8302;51.154;4.456;2024-02-23T01:30:40;1.70;;;0.40;;
16385;SDS011;8302;51.154;4.456;2024-02-23T01:33:08;0.30;;;0.30;;
16385;SDS011;8302;51.154;4.456;2024-02-23T01:35:36;0.93;;;0.40;;
16385;SDS011;8302;51.154;4.456;2024-02-23T01:38:04;0.75;;;0.50;;
16385;SDS011;8302;51.154;4.456;2024-02-23T01:40:32;0.88;;;0.30;;
16385;SDS011;8302;51.154;4.456;2024-02-23T01:43:02;4.05;;;0.50;;
16385;SDS011;8302;51.154;4.456;2024-02-23T01:45:30;0.20;;;0.20;;
16385;SDS011;8302;51.154;4.456;2024-02-23T01:47:58;2.78;;;0.40;;
16385;SDS011;8302;51.154;4.456;2024-02-23T01:50:26;0.70;;;0.40;;
16385;SDS011;8302;51.154;4.456;2024-02-23T01:52:55;0.88;;;0.40;;
16385;SDS011;8302;51.154;4.456;2024-02-23T01:55:23;1.25;;;0.50;;
16385;SDS011;8302;51.154;4.456;2024-02-23T01:57:51;2.35;;;0.30;;
16385;SDS011;8302;51.154;4.456;2024-02-23T02:00:20;0.50;;;0.40;;
16385;SDS011;8302;51.154;4.456;2024-02-23T02:02:52;0.45;;;0.40;;
16385;SDS011;8302;51.154;4.456;2024-02-23T02:05:20;0.88;;;0.50;;
16385;SDS011;8302;51.154;4.456;2024-02-23T02:07:49;1.10;;;0.50;;
16385;SDS011;8302;51.154;4.456;2024-02-23T02:10:20;1.65;;;0.60;;
16385;SDS011;8302;51.154;4.456;2024-02-23T02:12:48;0.47;;;0.40;;
16385;SDS011;8302;51.154;4.456;2024-02-23T02:15:16;2.28;;;0.60;;
16385;SDS011;8302;51.154;4.456;2024-02-23T02:17:45;1.35;;;0.50;;
16385;SDS011;8302;51.154;4.456;2024-02-23T02:20:13;0.85;;;0.50;;
16385;SDS011;8302;51.154;4.456;2024-02-23T02:22:41;0.90;;;0.55;;
16385;SDS011;8302;51.154;4.456;2024-02-23T02:25:08;0.40;;;0.32;;
16385;SDS011;8302;51.154;4.456;2024-02-23T02:27:36;0.50;;;0.30;;
16385;SDS011;8302;51.154;4.456;2024-02-23T02:30:04;1.27;;;0.50;;
16385;SDS011;8302;51.154;4.456;2024-02-23T02:32:32;0.98;;;0.40;;
16385;SDS011;8302;51.154;4.456;2024-02-23T02:35:04;0.38;;;0.30;;
16385;SDS011;8302;51.154;4.456;2024-02-23T02:37:32;0.60;;;0.38;;
16385;SDS011;8302;51.154;4.456;2024-02-23T02:40:00;0.30;;;0.30;;
16385;SDS011;8302;51.154;4.456;2024-02-23T02:42:28;0.35;;;0.30;;
16385;SDS011;8302;51.154;4.456;2024-02-23T02:44:56;0.73;;;0.40;;
16385;SDS011;8302;51.154;4.456;2024-02-23T02:47:24;1.38;;;0.45;;
16385;SDS011;8302;51.154;4.456;2024-02-23T02:49:51;2.72;;;0.73;;
16385;SDS011;8302;51.154;4.456;2024-02-23T02:52:21;1.45;;;0.60;;
16385;SDS011;8302;51.154;4.456;2024-02-23T02:54:50;0.32;;;0.30;;
16385;SDS011;8302;51.154;4.456;2024-02-23T02:57:17;0.60;;;0.45;;
16385;SDS011;8302;51.154;4.456;2024-02-23T02:59:45;0.52;;;0.30;;
16385;SDS011;8302;51.154;4.456;2024-02-23T03:02:13;2.75;;;0.60;;
16385;SDS011;8302;51.154;4.456;2024-02-23T03:04:46;1.85;;;0.70;;
16385;SDS011;8302;51.154;4.456;2024-02-23T03:07:14;0.95;;;0.50;;
16385;SDS011;8302;51.154;4.456;2024-02-23T03:09:43;0.50;;;0.40;;
16385;SDS011;8302;51.154;4.456;2024-02-23T03:12:11;0.90;;;0.57;;
16385;SDS011;8302;51.154;4.456;2024-02-23T03:14:39;1.10;;;0.52;;
16385;SDS011;8302;51.154;4.456;2024-02-23T03:17:07;1.60;;;0.63;;
16385;SDS011;8302;51.154;4.456;2024-02-23T03:19:36;2.63;;;0.60;;
16385;SDS011;8302;51.154;4.456;2024-02-23T03:22:04;0.57;;;0.50;;
16385;SDS011;8302;51.154;4.456;2024-02-23T03:24:32;0.55;;;0.45;;
16385;SDS011;8302;51.154;4.456;2024-02-23T03:27:01;0.75;;;0.47;;
16385;SDS011;8302;51.154;4.456;2024-02-23T03:29:29;1.92;;;0.63;;
16385;SDS011;8302;51.154;4.456;2024-02-23T03:31:57;0.50;;;0.28;;
16385;SDS011;8302;51.154;4.456;2024-02-23T03:34:25;0.73;;;0.47;;
16385;SDS011;8302;51.154;4.456;2024-02-23T03:36:53;0.40;;;0.22;;
16385;SDS011;8302;51.154;4.456;2024-02-23T03:39:20;1.17;;;0.43;;
16385;SDS011;8302;51.154;4.456;2024-02-23T03:41:48;0.95;;;0.40;;
16385;SDS011;8302;51.154;4.456;2024-02-23T03:44:17;1.08;;;0.55;;
16385;SDS011;8302;51.154;4.456;2024-02-23T03:46:45;0.40;;;0.30;;
16385;SDS011;8302;51.154;4.456;2024-02-23T03:49:13;0.55;;;0.55;;
16385;SDS011;8302;51.154;4.456;2024-02-23T03:51:41;0.57;;;0.43;;
16385;SDS011;8302;51.154;4.456;2024-02-23T03:54:09;0.70;;;0.50;;
16385;SDS011;8302;51.154;4.456;2024-02-23T03:56:40;1.85;;;0.57;;
16385;SDS011;8302;51.154;4.456;2024-02-23T03:59:08;0.30;;;0.30;;
16385;SDS011;8302;51.154;4.456;2024-02-23T04:01:38;2.45;;;0.50;;
16385;SDS011;8302;51.154;4.456;2024-02-23T04:04:06;0.85;;;0.45;;
16385;SDS011;8302;51.154;4.456;2024-02-23T04:06:34;1.20;;;0.50;;
16385;SDS011;8302;51.154;4.456;2024-02-23T04:09:02;0.80;;;0.50;;
16385;SDS011;8302;51.154;4.456;2024-02-23T04:11:31;1.20;;;0.70;;
16385;SDS011;8302;51.154;4.456;2024-02-23T04:14:00;0.80;;;0.35;;
16385;SDS011;8302;51.154;4.456;2024-02-23T04:16:28;2.20;;;0.85;;
16385;SDS011;8302;51.154;4.456;2024-02-23T04:18:57;0.73;;;0.40;;
16385;SDS011;8302;51.154;4.456;2024-02-23T04:21:25;0.73;;;0.30;;
16385;SDS011;8302;51.154;4.456;2024-02-23T04:23:53;0.73;;;0.45;;
16385;SDS011;8302;51.154;4.456;2024-02-23T04:26:21;0.82;;;0.68;;
16385;SDS011;8302;51.154;4.456;2024-02-23T04:28:49;1.27;;;0.60;;
16385;SDS011;8302;51.154;4.456;2024-02-23T04:31:17;2.22;;;0.40;;
16385;SDS011;8302;51.154;4.456;2024-02-23T04:33:44;0.45;;;0.30;;
16385;SDS011;8302;51.154;4.456;2024-02-23T04:36:14;0.60;;;0.50;;
16385;SDS011;8302;51.154;4.456;2024-02-23T04:38:42;0.40;;;0.40;;
16385;SDS011;8302;51.154;4.456;2024-02-23T04:41:10;1.95;;;0.65;;
16385;SDS011;8302;51.154;4.456;2024-02-23T04:43:37;1.10;;;0.70;;
16385;SDS011;8302;51.154;4.456;2024-02-23T04:46:05;2.35;;;0.60;;
16385;SDS011;8302;51.154;4.456;2024-02-23T04:48:33;0.95;;;0.50;;
16385;SDS011;8302;51.154;4.456;2024-02-23T04:51:03;2.25;;;0.95;;
16385;SDS011;8302;51.154;4.456;2024-02-23T04:53:32;1.88;;;0.73;;
16385;SDS011;8302;51.154;4.456;2024-02-23T04:56:03;0.82;;;0.63;;
16385;SDS011;8302;51.154;4.456;2024-02-23T04:58:31;1.30;;;0.40;;
16385;SDS011;8302;51.154;4.456;2024-02-23T05:00:59;1.63;;;0.60;;
16385;SDS011;8302;51.154;4.456;2024-02-23T05:03:27;1.45;;;0.60;;
16385;SDS011;8302;51.154;4.456;2024-02-23T05:05:55;2.80;;;0.50;;
16385;SDS011;8302;51.154;4.456;2024-02-23T05:08:23;1.20;;;0.60;;
16385;SDS011;8302;51.154;4.456;2024-02-23T05:10:52;1.50;;;0.57;;
16385;SDS011;8302;51.154;4.456;2024-02-23T05:13:20;3.80;;;0.90;;
16385;SDS011;8302;51.154;4.456;2024-02-23T05:15:48;2.17;;;0.70;;
16385;SDS011;8302;51.154;4.456;2024-02-23T05:18:15;0.55;;;0.50;;
16385;SDS011;8302;51.154;4.456;2024-02-23T05:20:43;2.90;;;1.00;;
16385;SDS011;8302;51.154;4.456;2024-02-23T05:23:11;0.55;;;0.40;;
16385;SDS011;8302;51.154;4.456;2024-02-23T05:25:42;1.67;;;0.57;;
16385;SDS011;8302;51.154;4.456;2024-02-23T05:28:11;0.73;;;0.55;;
16385;SDS011;8302;51.154;4.456;2024-02-23T05:30:38;1.27;;;0.60;;
16385;SDS011;8302;51.154;4.456;2024-02-23T05:33:06;1.45;;;0.68;;
16385;SDS011;8302;51.154;4.456;2024-02-23T05:35:34;1.65;;;0.70;;
16385;SDS011;8302;51.154;4.456;2024-02-23T05:38:02;1.80;;;1.10;;
16385;SDS011;8302;51.154;4.456;2024-02-23T05:40:32;1.30;;;0.75;;
16385;SDS011;8302;51.154;4.456;2024-02-23T05:43:00;1.60;;;0.50;;
16385;SDS011;8302;51.154;4.456;2024-02-23T05:45:29;2.65;;;0.60;;
16385;SDS011;8302;51.154;4.456;2024-02-23T05:47:57;1.10;;;0.45;;
16385;SDS011;8302;51.154;4.456;2024-02-23T05:50:25;2.28;;;0.88;;
16385;SDS011;8302;51.154;4.456;2024-02-23T05:52:53;3.28;;;0.77;;
16385;SDS011;8302;51.154;4.456;2024-02-23T05:55:21;1.25;;;0.65;;
16385;SDS011;8302;51.154;4.456;2024-02-23T05:57:49;1.05;;;0.60;;
16385;SDS011;8302;51.154;4.456;2024-02-23T06:00:17;2.80;;;0.88;;
16385;SDS011;8302;51.154;4.456;2024-02-23T06:02:47;2.85;;;1.00;;
16385;SDS011;8302;51.154;4.456;2024-02-23T06:05:15;3.05;;;0.60;;
16385;SDS011;8302;51.154;4.456;2024-02-23T06:07:43;0.77;;;0.60;;
16385;SDS011;8302;51.154;4.456;2024-02-23T06:10:11;1.58;;;0.70;;
16385;SDS011;8302;51.154;4.456;2024-02-23T06:12:38;1.10;;;0.50;;
16385;SDS011;8302;51.154;4.456;2024-02-23T06:15:06;2.25;;;0.73;;
16385;SDS011;8302;51.154;4.456;2024-02-23T06:17:34;0.88;;;0.65;;
16385;SDS011;8302;51.154;4.456;2024-02-23T06:20:04;1.50;;;0.80;;
16385;SDS011;8302;51.154;4.456;2024-02-23T06:22:34;1.70;;;0.95;;
16385;SDS011;8302;51.154;4.456;2024-02-23T06:25:02;1.85;;;0.80;;
16385;SDS011;8302;51.154;4.456;2024-02-23T06:27:29;1.27;;;0.52;;
16385;SDS011;8302;51.154;4.456;2024-02-23T06:29:57;3.75;;;0.98;;
16385;SDS011;8302;51.154;4.456;2024-02-23T06:32:25;2.55;;;1.48;;
16385;SDS011;8302;51.154;4.456;2024-02-23T06:34:53;7.60;;;2.17;;
16385;SDS011;8302;51.154;4.456;2024-02-23T06:37:27;11.85;;;2.90;;
16385;SDS011;8302;51.154;4.456;2024-02-23T06:39:54;13.27;;;2.97;;
16385;SDS011;8302;51.154;4.456;2024-02-23T06:42:22;10.48;;;3.05;;
16385;SDS011;8302;51.154;4.456;2024-02-23T06:44:50;12.98;;;3.63;;
16385;SDS011;8302;51.154;4.456;2024-02-23T06:47:18;10.27;;;3.75;;
16385;SDS011;8302;51.154;4.456;2024-02-23T06:49:45;12.73;;;3.63;;
16385;SDS011;8302;51.154;4.456;2024-02-23T06:52:13;14.30;;;3.65;;
16385;SDS011;8302;51.154;4.456;2024-02-23T06:54:42;13.55;;;3.63;;
16385;SDS011;8302;51.154;4.456;2024-02-23T06:57:10;11.40;;;4.10;;
16385;SDS011;8302;51.154;4.456;2024-02-23T06:59:38;13.73;;;3.60;;
16385;SDS011;8302;51.154;4.456;2024-02-23T07:02:06;11.48;;;3.67;;
16385;SDS011;8302;51.154;4.456;2024-02-23T07:04:33;10.02;;;3.00;;
16385;SDS011;8302;51.154;4.456;2024-02-23T07:07:01;8.93;;;3.63;;
16385;SDS011;8302;51.154;4.456;2024-02-23T07:09:33;10.38;;;4.13;;
16385;SDS011;8302;51.154;4.456;2024-02-23T07:12:03;8.68;;;3.67;;
16385;SDS011;8302;51.154;4.456;2024-02-23T07:14:31;8.75;;;3.28;;
16385;SDS011;8302;51.154;4.456;2024-02-23T07:16:59;8.85;;;3.45;;
16385;SDS011;8302;51.154;4.456;2024-02-23T07:19:27;10.63;;;3.35;;
16385;SDS011;8302;51.154;4.456;2024-02-23T07:21:56;7.40;;;3.35;;
16385;SDS011;8302;51.154;4.456;2024-02-23T07:24:23;8.10;;;2.97;;
16385;SDS011;8302;51.154;4.456;2024-02-23T07:26:51;9.95;;;3.22;;
16385;SDS011;8302;51.154;4.456;2024-02-23T07:29:20;8.10;;;2.95;;
16385;SDS011;8302;51.154;4.456;2024-02-23T07:31:48;7.03;;;2.72;;
16385;SDS011;8302;51.154;4.456;2024-02-23T07:34:16;10.10;;;2.47;;
16385;SDS011;8302;51.154;4.456;2024-02-23T07:36:44;4.85;;;2.03;;
16385;SDS011;8302;51.154;4.456;2024-02-23T07:39:12;7.03;;;2.92;;
16385;SDS011;8302;51.154;4.456;2024-02-23T07:41:40;7.68;;;2.60;;
16385;SDS011;8302;51.154;4.456;2024-02-23T07:44:07;4.78;;;1.98;;
16385;SDS011;8302;51.154;4.456;2024-02-23T07:46:37;5.63;;;2.20;;
16385;SDS011;8302;51.154;4.456;2024-02-23T07:49:05;7.28;;;2.08;;
16385;SDS011;8302;51.154;4.456;2024-02-23T07:51:33;4.57;;;1.83;;
16385;SDS011;8302;51.154;4.456;2024-02-23T07:54:00;4.38;;;2.03;;
16385;SDS011;8302;51.154;4.456;2024-02-23T07:56:28;4.68;;;2.00;;
16385;SDS011;8302;51.154;4.456;2024-02-23T07:58:57;5.93;;;2.35;;
16385;SDS011;8302;51.154;4.456;2024-02-23T08:01:24;5.45;;;2.10;;
16385;SDS011;8302;51.154;4.456;2024-02-23T08:03:54;4.10;;;1.77;;
16385;SDS011;8302;51.154;4.456;2024-02-23T08:06:21;5.38;;;2.13;;
16385;SDS011;8302;51.154;4.456;2024-02-23T08:08:49;6.10;;;2.00;;
16385;SDS011;8302;51.154;4.456;2024-02-23T08:11:17;4.43;;;1.77;;
16385;SDS011;8302;51.154;4.456;2024-02-23T08:13:45;5.20;;;2.20;;
16385;SDS011;8302;51.154;4.456;2024-02-23T08:16:15;6.55;;;3.03;;
16385;SDS011;8302;51.154;4.456;2024-02-23T08:18:43;8.50;;;3.17;;
16385;SDS011;8302;51.154;4.456;2024-02-23T08:21:12;14.30;;;3.60;;
16385;SDS011;8302;51.154;4.456;2024-02-23T08:23:40;12.00;;;4.22;;
16385;SDS011;8302;51.154;4.456;2024-02-23T08:26:08;13.40;;;5.22;;
16385;SDS011;8302;51.154;4.456;2024-02-23T08:28:36;15.15;;;5.05;;
16385;SDS011;8302;51.154;4.456;2024-02-23T08:31:04;17.90;;;5.53;;
16385;SDS011;8302;51.154;4.456;2024-02-23T08:33:32;17.52;;;4.95;;
16385;SDS011;8302;51.154;4.456;2024-02-23T08:36:00;18.10;;;5.15;;
16385;SDS011;8302;51.154;4.456;2024-02-23T08:38:29;13.75;;;5.20;;
16385;SDS011;8302;51.154;4.456;2024-02-23T08:40:57;16.48;;;6.30;;
16385;SDS011;8302;51.154;4.456;2024-02-23T08:43:25;15.02;;;6.20;;
16385;SDS011;8302;51.154;4.456;2024-02-23T08:45:53;12.35;;;5.10;;
16385;SDS011;8302;51.154;4.456;2024-02-23T08:48:20;15.50;;;4.75;;
16385;SDS011;8302;51.154;4.456;2024-02-23T08:50:49;13.13;;;4.90;;
16385;SDS011;8302;51.154;4.456;2024-02-23T08:53:16;14.82;;;4.55;;
16385;SDS011;8302;51.154;4.456;2024-02-23T08:55:46;13.40;;;4.72;;
16385;SDS011;8302;51.154;4.456;2024-02-23T08:58:13;10.10;;;4.40;;
16385;SDS011;8302;51.154;4.456;2024-02-23T09:00:41;13.27;;;4.72;;
16385;SDS011;8302;51.154;4.456;2024-02-23T09:03:09;13.02;;;4.60;;
16385;SDS011;8302;51.154;4.456;2024-02-23T09:05:37;12.10;;;3.47;;
16385;SDS011;8302;51.154;4.456;2024-02-23T09:08:06;10.10;;;3.67;;
16385;SDS011;8302;51.154;4.456;2024-02-23T09:10:34;7.30;;;3.05;;
16385;SDS011;8302;51.154;4.456;2024-02-23T09:13:03;9.75;;;3.30;;
16385;SDS011;8302;51.154;4.456;2024-02-23T09:15:31;11.07;;;3.40;;
16385;SDS011;8302;51.154;4.456;2024-02-23T09:17:59;9.20;;;3.05;;
16385;SDS011;8302;51.154;4.456;2024-02-23T09:20:26;9.45;;;2.92;;
16385;SDS011;8302;51.154;4.456;2024-02-23T09:22:57;6.63;;;2.90;;
16385;SDS011;8302;51.154;4.456;2024-02-23T09:25:25;7.60;;;2.55;;
16385;SDS011;8302;51.154;4.456;2024-02-23T09:27:56;5.40;;;2.35;;
16385;SDS011;8302;51.154;4.456;2024-02-23T09:30:25;7.28;;;2.47;;
16385;SDS011;8302;51.154;4.456;2024-02-23T09:32:53;6.13;;;2.78;;
16385;SDS011;8302;51.154;4.456;2024-02-23T09:35:21;8.80;;;2.33;;
16385;SDS011;8302;51.154;4.456;2024-02-23T09:37:49;8.02;;;2.58;;
16385;SDS011;8302;51.154;4.456;2024-02-23T09:40:17;6.68;;;2.30;;
16385;SDS011;8302;51.154;4.456;2024-02-23T09:42:46;5.65;;;2.15;;
16385;SDS011;8302;51.154;4.456;2024-02-23T09:45:17;4.38;;;2.08;;
16385;SDS011;8302;51.154;4.456;2024-02-23T09:47:48;3.15;;;1.85;;
16385;SDS011;8302;51.154;4.456;2024-02-23T09:50:16;5.45;;;2.30;;
16385;SDS011;8302;51.154;4.456;2024-02-23T09:52:47;4.05;;;1.75;;
16385;SDS011;8302;51.154;4.456;2024-02-23T09:55:16;4.20;;;2.10;;
16385;SDS011;8302;51.154;4.456;2024-02-23T09:57:45;4.32;;;1.70;;
16385;SDS011;8302;51.154;4.456;2024-02-23T10:00:15;3.05;;;1.58;;
16385;SDS011;8302;51.154;4.456;2024-02-23T10:02:43;4.38;;;1.80;;
16385;SDS011;8302;51.154;4.456;2024-02-23T10:05:13;2.63;;;1.30;;
16385;SDS011;8302;51.154;4.456;2024-02-23T10:07:41;2.33;;;1.10;;
16385;SDS011;8302;51.154;4.456;2024-02-23T10:10:11;4.38;;;1.35;;
16385;SDS011;8302;51.154;4.456;2024-02-23T10:12:38;1.58;;;0.98;;
16385;SDS011;8302;51.154;4.456;2024-02-23T10:15:07;2.88;;;1.10;;
16385;SDS011;8302;51.154;4.456;2024-02-23T10:17:35;2.70;;;0.82;;
16385;SDS011;8302;51.154;4.456;2024-02-23T10:20:03;5.93;;;0.90;;
16385;SDS011;8302;51.154;4.456;2024-02-23T10:22:33;0.98;;;0.75;;
16385;SDS011;8302;51.154;4.456;2024-02-23T10:25:01;1.92;;;0.77;;
16385;SDS011;8302;51.154;4.456;2024-02-23T10:27:29;3.40;;;0.82;;
16385;SDS011;8302;51.154;4.456;2024-02-23T10:29:57;2.10;;;1.00;;
16385;SDS011;8302;51.154;4.456;2024-02-23T10:32:25;2.22;;;0.80;;
16385;SDS011;8302;51.154;4.456;2024-02-23T10:34:55;1.95;;;1.05;;
16385;SDS011;8302;51.154;4.456;2024-02-23T10:37:23;4.40;;;1.20;;
16385;SDS011;8302;51.154;4.456;2024-02-23T10:39:54;3.08;;;0.85;;
16385;SDS011;8302;51.154;4.456;2024-02-23T10:42:24;1.38;;;0.80;;
16385;SDS011;8302;51.154;4.456;2024-02-23T10:44:57;4.53;;;0.90;;
16385;SDS011;8302;51.154;4.456;2024-02-23T10:47:27;1.05;;;0.65;;
16385;SDS011;8302;51.154;4.456;2024-02-23T10:49:55;0.95;;;0.60;;
16385;SDS011;8302;51.154;4.456;2024-02-23T10:52:24;1.20;;;0.82;;
16385;SDS011;8302;51.154;4.456;2024-02-23T10:54:54;1.98;;;0.80;;
16385;SDS011;8302;51.154;4.456;2024-02-23T10:57:22;2.97;;;1.10;;
16385;SDS011;8302;51.154;4.456;2024-02-23T10:59:50;2.67;;;0.88;;
16385;SDS011;8302;51.154;4.456;2024-02-23T11:02:19;2.83;;;0.95;;
16385;SDS011;8302;51.154;4.456;2024-02-23T11:04:47;1.73;;;0.70;;
16385;SDS011;8302;51.154;4.456;2024-02-23T11:07:18;2.50;;;0.63;;
16385;SDS011;8302;51.154;4.456;2024-02-23T11:09:48;1.10;;;0.60;;
16385;SDS011;8302;51.154;4.456;2024-02-23T11:12:23;1.70;;;0.60;;
16385;SDS011;8302;51.154;4.456;2024-02-23T11:14:56;2.13;;;0.88;;
16385;SDS011;8302;51.154;4.456;2024-02-23T11:17:25;3.30;;;0.57;;
16385;SDS011;8302;51.154;4.456;2024-02-23T11:19:54;1.83;;;0.80;;
16385;SDS011;8302;51.154;4.456;2024-02-23T11:22:25;1.42;;;0.70;;
16385;SDS011;8302;51.154;4.456;2024-02-23T11:25:04;1.08;;;0.80;;
16385;SDS011;8302;51.154;4.456;2024-02-23T11:27:34;1.52;;;0.88;;
16385;SDS011;8302;51.154;4.456;2024-02-23T11:30:02;2.22;;;0.68;;
16385;SDS011;8302;51.154;4.456;2024-02-23T11:32:37;1.80;;;0.63;;
16385;SDS011;8302;51.154;4.456;2024-02-23T11:35:07;1.52;;;1.20;;
16385;SDS011;8302;51.154;4.456;2024-02-23T11:37:43;2.50;;;0.70;;
16385;SDS011;8302;51.154;4.456;2024-02-23T11:40:12;1.58;;;0.52;;
16385;SDS011;8302;51.154;4.456;2024-02-23T11:42:42;2.00;;;0.93;;
16385;SDS011;8302;51.154;4.456;2024-02-23T11:45:10;0.55;;;0.45;;
16385;SDS011;8302;51.154;4.456;2024-02-23T11:47:38;1.77;;;0.90;;
16385;SDS011;8302;51.154;4.456;2024-02-23T11:50:07;0.90;;;0.55;;
16385;SDS011;8302;51.154;4.456;2024-02-23T11:52:36;1.33;;;0.80;;
16385;SDS011;8302;51.154;4.456;2024-02-23T11:55:04;1.00;;;0.70;;
16385;SDS011;8302;51.154;4.456;2024-02-23T11:57:33;1.23;;;0.63;;
16385;SDS011;8302;51.154;4.456;2024-02-23T12:00:14;0.80;;;0.80;;
16385;SDS011;8302;51.154;4.456;2024-02-23T12:02:43;1.13;;;0.73;;
16385;SDS011;8302;51.154;4.456;2024-02-23T12:05:11;1.08;;;0.73;;
16385;SDS011;8302;51.154;4.456;2024-02-23T12:07:39;1.80;;;0.80;;
16385;SDS011;8302;51.154;4.456;2024-02-23T12:10:11;2.25;;;0.65;;
16385;SDS011;8302;51.154;4.456;2024-02-23T12:12:40;5.00;;;0.65;;
16385;SDS011;8302;51.154;4.456;2024-02-23T12:15:08;1.45;;;0.73;;
16385;SDS011;8302;51.154;4.456;2024-02-23T12:17:37;1.02;;;0.65;;
16385;SDS011;8302;51.154;4.456;2024-02-23T12:20:05;1.70;;;0.65;;
16385;SDS011;8302;51.154;4.456;2024-02-23T12:22:35;0.75;;;0.50;;
16385;SDS011;8302;51.154;4.456;2024-02-23T12:25:03;0.77;;;0.52;;
16385;SDS011;8302;51.154;4.456;2024-02-23T12:27:31;0.70;;;0.50;;
16385;SDS011;8302;51.154;4.456;2024-02-23T12:29:58;0.60;;;0.50;;
16385;SDS011;8302;51.154;4.456;2024-02-23T12:32:26;0.45;;;0.40;;
16385;SDS011;8302;51.154;4.456;2024-02-23T12:34:56;2.60;;;0.70;;
16385;SDS011;8302;51.154;4.456;2024-02-23T12:37:24;1.05;;;0.70;;
16385;SDS011;8302;51.154;4.456;2024-02-23T12:39:51;1.00;;;0.50;;
16385;SDS011;8302;51.154;4.456;2024-02-23T12:42:19;1.52;;;0.50;;
16385;SDS011;8302;51.154;4.456;2024-02-23T12:44:47;1.55;;;0.85;;
16385;SDS011;8302;51.154;4.456;2024-02-23T12:47:15;1.95;;;0.50;;
16385;SDS011;8302;51.154;4.456;2024-02-23T12:49:42;1.27;;;0.68;;
16385;SDS011;8302;51.154;4.456;2024-02-23T12:52:13;2.63;;;0.60;;
16385;SDS011;8302;51.154;4.456;2024-02-23T12:54:41;0.60;;;0.38;;
16385;SDS011;8302;51.154;4.456;2024-02-23T12:57:09;1.13;;;0.50;;
16385;SDS011;8302;51.154;4.456;2024-02-23T12:59:36;0.63;;;0.45;;
16385;SDS011;8302;51.154;4.456;2024-02-23T13:02:04;1.50;;;0.43;;
16385;SDS011;8302;51.154;4.456;2024-02-23T13:04:33;0.57;;;0.57;;
16385;SDS011;8302;51.154;4.456;2024-02-23T13:07:01;2.67;;;0.30;;
16385;SDS011;8302;51.154;4.456;2024-02-23T13:09:30;0.40;;;0.30;;
16385;SDS011;8302;51.154;4.456;2024-02-23T13:11:58;1.10;;;0.40;;
16385;SDS011;8302;51.154;4.456;2024-02-23T13:14:26;1.27;;;0.50;;
16385;SDS011;8302;51.154;4.456;2024-02-23T13:16:54;1.33;;;0.47;;
16385;SDS011;8302;51.154;4.456;2024-02-23T13:19:22;3.97;;;0.68;;
16385;SDS011;8302;51.154;4.456;2024-02-23T13:21:50;0.63;;;0.50;;
16385;SDS011;8302;51.154;4.456;2024-02-23T13:24:18;2.28;;;0.60;;
16385;SDS011;8302;51.154;4.456;2024-02-23T13:26:47;0.30;;;0.30;;
16385;SDS011;8302;51.154;4.456;2024-02-23T13:29:15;1.42;;;0.50;;
16385;SDS011;8302;51.154;4.456;2024-02-23T13:31:43;0.65;;;0.50;;
16385;SDS011;8302;51.154;4.456;2024-02-23T13:34:10;0.85;;;0.47;;
16385;SDS011;8302;51.154;4.456;2024-02-23T13:36:38;3.25;;;0.63;;
16385;SDS011;8302;51.154;4.456;2024-02-23T13:39:06;1.40;;;0.70;;
16385;SDS011;8302;51.154;4.456;2024-02-23T13:41:35;1.02;;;0.35;;
16385;SDS011;8302;51.154;4.456;2024-02-23T13:44:04;2.47;;;0.38;;
16385;SDS011;8302;51.154;4.456;2024-02-23T13:46:35;1.58;;;0.57;;
16385;SDS011;8302;51.154;4.456;2024-02-23T13:49:03;0.65;;;0.57;;
16385;SDS011;8302;51.154;4.456;2024-02-23T13:51:32;0.70;;;0.35;;
16385;SDS011;8302;51.154;4.456;2024-02-23T13:54:00;1.00;;;0.73;;
16385;SDS011;8302;51.154;4.456;2024-02-23T13:56:27;4.90;;;0.70;;
16385;SDS011;8302;51.154;4.456;2024-02-23T13:58:56;4.03;;;0.52;;
16385;SDS011;8302;51.154;4.456;2024-02-23T14:01:25;1.80;;;0.90;;
16385;SDS011;8302;51.154;4.456;2024-02-23T14:03:53;1.20;;;0.70;;
16385;SDS011;8302;51.154;4.456;2024-02-23T14:06:21;2.92;;;0.60;;
16385;SDS011;8302;51.154;4.456;2024-02-23T14:08:49;0.60;;;0.55;;
16385;SDS011;8302;51.154;4.456;2024-02-23T14:11:16;0.52;;;0.50;;
16385;SDS011;8302;51.154;4.456;2024-02-23T14:13:45;2.53;;;0.60;;
16385;SDS011;8302;51.154;4.456;2024-02-23T14:16:17;0.88;;;0.52;;
16385;SDS011;8302;51.154;4.456;2024-02-23T14:18:46;1.05;;;0.65;;
16385;SDS011;8302;51.154;4.456;2024-02-23T14:21:14;0.95;;;0.45;;
16385;SDS011;8302;51.154;4.456;2024-02-23T14:23:42;1.48;;;0.60;;
16385;SDS011;8302;51.154;4.456;2024-02-23T14:26:10;0.90;;;0.47;;
16385;SDS011;8302;51.154;4.456;2024-02-23T14:28:39;0.85;;;0.40;;
16385;SDS011;8302;51.154;4.456;2024-02-23T14:31:07;3.35;;;0.60;;
16385;SDS011;8302;51.154;4.456;2024-02-23T14:33:35;2.30;;;0.70;;
16385;SDS011;8302;51.154;4.456;2024-02-23T14:36:04;0.75;;;0.47;;
16385;SDS011;8302;51.154;4.456;2024-02-23T14:38:32;1.15;;;0.55;;
16385;SDS011;8302;51.154;4.456;2024-02-23T14:41:01;0.82;;;0.50;;
16385;SDS011;8302;51.154;4.456;2024-02-23T14:43:28;1.20;;;0.50;;
16385;SDS011;8302;51.154;4.456;2024-02-23T14:45:57;1.55;;;0.70;;
16385;SDS011;8302;51.154;4.456;2024-02-23T14:48:25;1.50;;;0.55;;
16385;SDS011;8302;51.154;4.456;2024-02-23T14:50:53;1.38;;;0.52;;
16385;SDS011;8302;51.154;4.456;2024-02-23T14:53:22;0.70;;;0.32;;
16385;SDS011;8302;51.154;4.456;2024-02-23T14:55:53;0.63;;;0.47;;
16385;SDS011;8302;51.154;4.456;2024-02-23T14:58:21;0.85;;;0.63;;
16385;SDS011;8302;51.154;4.456;2024-02-23T15:00:48;2.30;;;0.68;;
16385;SDS011;8302;51.154;4.456;2024-02-23T15:03:16;2.10;;;0.65;;
16385;SDS011;8302;51.154;4.456;2024-02-23T15:05:44;3.10;;;1.08;;
16385;SDS011;8302;51.154;4.456;2024-02-23T15:08:12;1.30;;;0.70;;